createdAt,value
2022-11-08T00:01:57.079Z,13.52
2022-11-08T00:04:15.262Z,12.93
2022-11-08T00:06:32.353Z,19.52
2022-11-08T00:08:49.452Z,12.00
2022-11-08T00:11:06.766Z,16.50
2022-11-08T00:13:24.884Z,19.45
2022-11-08T00:15:42.027Z,15.20
2022-11-08T00:17:59.200Z,14.93
2022-11-08T00:20:16.223Z,19.33
2022-11-08T00:22:33.376Z,16.60
2022-11-08T00:24:50.368Z,17.27
2022-11-08T00:27:07.383Z,17.00
2022-11-08T00:29:25.410Z,12.70
2022-11-08T00:31:42.461Z,11.18
2022-11-08T00:33:59.917Z,15.25
2022-11-08T00:36:16.904Z,10.10
2022-11-08T00:38:34.210Z,14.25
2022-11-08T00:40:51.537Z,17.15
2022-11-08T00:43:08.672Z,26.05
2022-11-08T00:45:25.751Z,13.95
2022-11-08T00:47:43.948Z,14.90
2022-11-08T00:50:02.098Z,13.20
2022-11-08T00:52:19.087Z,12.32
2022-11-08T00:54:36.996Z,11.85
2022-11-08T00:56:54.173Z,14.35
2022-11-08T00:59:16.076Z,19.50
2022-11-08T01:01:34.042Z,19.35
2022-11-08T01:03:51.188Z,16.88
2022-11-08T01:06:08.431Z,18.92
2022-11-08T01:08:26.767Z,17.63
2022-11-08T01:10:43.875Z,17.40
2022-11-08T01:13:02.592Z,17.13
2022-11-08T01:15:21.139Z,14.55
2022-11-08T01:17:39.188Z,24.23
2022-11-08T01:19:56.662Z,15.65
2022-11-08T01:22:13.649Z,16.90
2022-11-08T01:24:30.827Z,15.40
2022-11-08T01:26:48.729Z,12.95
2022-11-08T01:29:05.787Z,15.48
2022-11-08T01:31:23.155Z,13.60
2022-11-08T01:33:48.464Z,12.20
2022-11-08T01:36:08.641Z,13.48
2022-11-08T01:38:28.831Z,12.73
2022-11-08T01:40:48.588Z,9.77
2022-11-08T01:43:07.155Z,14.48
2022-11-08T01:45:24.180Z,14.77
2022-11-08T01:47:41.089Z,13.18
2022-11-08T01:49:58.519Z,11.98
2022-11-08T01:52:15.580Z,10.35
2022-11-08T01:54:32.723Z,12.82
2022-11-08T01:56:50.080Z,13.27
2022-11-08T01:59:07.490Z,15.23
2022-11-08T02:01:24.773Z,12.98
2022-11-08T02:03:41.901Z,12.85
2022-11-08T02:06:00.046Z,11.52
2022-11-08T02:08:17.642Z,14.15
2022-11-08T02:10:35.190Z,18.90
2022-11-08T02:12:52.514Z,12.35
2022-11-08T02:15:09.861Z,12.23
2022-11-08T02:17:27.193Z,19.38
2022-11-08T02:19:45.081Z,14.52
2022-11-08T02:22:02.418Z,15.02
2022-11-08T02:24:19.783Z,15.77
2022-11-08T02:26:37.712Z,11.30
2022-11-08T02:28:54.658Z,18.05
2022-11-08T02:31:11.950Z,16.55
2022-11-08T02:33:31.275Z,15.60
2022-11-08T02:35:48.311Z,9.95
2022-11-08T02:38:05.363Z,18.85
2022-11-08T02:40:24.705Z,12.38
2022-11-08T02:42:41.957Z,22.05
2022-11-08T02:44:59.210Z,10.55
2022-11-08T02:47:16.123Z,18.48
2022-11-08T02:49:33.457Z,10.07
2022-11-08T02:51:50.828Z,10.38
2022-11-08T02:54:08.867Z,13.73
2022-11-08T02:56:26.084Z,14.25
2022-11-08T02:58:44.105Z,15.77
2022-11-08T03:01:01.212Z,8.55
2022-11-08T03:03:20.289Z,9.20
2022-11-08T03:05:37.215Z,13.35
2022-11-08T03:07:54.655Z,22.95
2022-11-08T03:10:11.783Z,13.85
2022-11-08T03:12:28.974Z,10.27
2022-11-08T03:14:48.126Z,13.80
2022-11-08T03:17:05.197Z,9.02
2022-11-08T03:19:24.459Z,16.77
2022-11-08T03:21:41.592Z,11.40
2022-11-08T03:23:58.645Z,11.07
2022-11-08T03:26:15.674Z,9.25
2022-11-08T03:28:34.209Z,18.65
2022-11-08T03:30:51.256Z,27.60
2022-11-08T03:33:09.298Z,12.60
2022-11-08T03:35:26.587Z,11.35
2022-11-08T03:37:44.668Z,19.00
2022-11-08T03:40:01.919Z,19.20
2022-11-08T03:42:19.196Z,16.15
2022-11-08T03:44:38.861Z,8.18
2022-11-08T03:46:55.883Z,14.38
2022-11-08T03:49:12.978Z,13.70
2022-11-08T03:51:30.009Z,11.35
2022-11-08T03:53:48.995Z,16.05
2022-11-08T03:56:06.287Z,7.95
2022-11-08T03:58:23.523Z,8.65
2022-11-08T04:00:40.860Z,8.25
2022-11-08T04:02:58.221Z,14.18
2022-11-08T04:05:15.161Z,13.02
2022-11-08T04:07:34.905Z,8.43
2022-11-08T04:09:51.886Z,12.55
2022-11-08T04:12:10.484Z,8.93
2022-11-08T04:14:27.369Z,6.95
2022-11-08T04:16:44.693Z,9.57
2022-11-08T04:19:02.660Z,8.13
2022-11-08T04:21:19.593Z,7.32
2022-11-08T04:23:36.532Z,8.13
2022-11-08T04:25:53.625Z,9.90
2022-11-08T04:28:11.539Z,7.32
2022-11-08T04:30:28.999Z,5.50
2022-11-08T04:32:46.297Z,18.10
2022-11-08T04:35:04.257Z,9.43
2022-11-08T04:37:21.293Z,5.25
2022-11-08T04:39:39.636Z,7.35
2022-11-08T04:42:01.876Z,6.03
2022-11-08T04:44:19.783Z,5.20
2022-11-08T04:46:37.113Z,5.18
2022-11-08T04:48:55.378Z,5.15
2022-11-08T04:51:13.617Z,7.35
2022-11-08T04:53:30.918Z,6.50
2022-11-08T04:55:48.096Z,4.40
2022-11-08T04:58:05.096Z,4.43
2022-11-08T05:00:22.168Z,4.43
2022-11-08T05:02:39.330Z,6.72
2022-11-08T05:04:56.705Z,5.55
2022-11-08T05:07:13.628Z,4.43
2022-11-08T05:09:31.918Z,6.88
2022-11-08T05:11:48.925Z,4.82
2022-11-08T05:14:06.223Z,4.45
2022-11-08T05:16:24.237Z,5.03
2022-11-08T05:18:42.104Z,4.38
2022-11-08T05:20:59.589Z,4.88
2022-11-08T05:23:16.652Z,5.90
2022-11-08T05:25:33.984Z,6.82
2022-11-08T05:27:51.066Z,4.75
2022-11-08T05:30:08.301Z,4.65
2022-11-08T05:32:25.556Z,5.28
2022-11-08T05:34:42.552Z,6.30
2022-11-08T05:37:02.625Z,3.92
2022-11-08T05:39:19.944Z,4.72
2022-11-08T05:41:38.217Z,4.53
2022-11-08T05:43:55.535Z,8.65
2022-11-08T05:46:12.770Z,5.88
2022-11-08T05:48:30.024Z,3.97
2022-11-08T05:50:47.297Z,6.00
2022-11-08T05:53:04.252Z,18.65
2022-11-08T05:55:21.196Z,12.65
2022-11-08T05:57:38.135Z,7.85
2022-11-08T05:59:55.182Z,4.53
2022-11-08T06:02:12.207Z,4.40
2022-11-08T06:04:29.593Z,7.05
2022-11-08T06:06:47.906Z,6.90
2022-11-08T06:09:05.163Z,8.73
2022-11-08T06:11:22.450Z,6.60
2022-11-08T06:13:39.774Z,3.78
2022-11-08T06:15:57.044Z,4.20
2022-11-08T06:18:14.305Z,6.18
2022-11-08T06:20:31.373Z,4.35
2022-11-08T06:22:48.639Z,3.85
2022-11-08T06:25:05.652Z,5.72
2022-11-08T06:27:22.714Z,5.60
2022-11-08T06:29:39.766Z,5.70
2022-11-08T06:31:57.084Z,3.92
2022-11-08T06:34:14.307Z,5.85
2022-11-08T06:36:31.339Z,4.28
2022-11-08T06:38:48.279Z,5.30
2022-11-08T06:41:05.497Z,3.92
2022-11-08T06:43:24.017Z,6.53
2022-11-08T06:45:41.513Z,4.95
2022-11-08T06:47:58.831Z,4.45
2022-11-08T06:50:16.771Z,5.60
2022-11-08T06:52:33.723Z,4.95
2022-11-08T06:54:51.070Z,5.65
2022-11-08T06:57:07.931Z,4.68
2022-11-08T06:59:26.209Z,7.32
2022-11-08T07:01:45.816Z,91.20
2022-11-08T07:04:03.361Z,72.07
2022-11-08T07:06:20.862Z,46.85
2022-11-08T07:08:37.783Z,22.50
2022-11-08T07:10:54.759Z,12.02
2022-11-08T07:13:11.782Z,7.10
2022-11-08T07:15:29.061Z,7.70
2022-11-08T07:17:45.980Z,10.57
2022-11-08T07:20:03.314Z,8.40
2022-11-08T07:22:20.327Z,5.60
2022-11-08T07:24:37.254Z,7.47
2022-11-08T07:26:55.618Z,7.70
2022-11-08T07:29:15.921Z,4.70
2022-11-08T07:31:33.583Z,5.13
2022-11-08T07:33:50.562Z,5.43
2022-11-08T07:36:07.857Z,4.57
2022-11-08T07:38:25.050Z,6.00
2022-11-08T07:40:42.247Z,7.75
2022-11-08T07:43:15.482Z,5.88
2022-11-08T07:45:32.473Z,4.32
2022-11-08T07:47:50.261Z,5.75
2022-11-08T07:50:08.775Z,6.10
2022-11-08T07:52:25.758Z,21.48
2022-11-08T07:54:42.685Z,23.52
2022-11-08T07:57:01.031Z,9.55
2022-11-08T07:59:18.061Z,5.30
2022-11-08T08:01:35.981Z,8.75
2022-11-08T08:03:53.062Z,11.00
2022-11-08T08:06:10.298Z,10.00
2022-11-08T08:08:27.320Z,7.93
2022-11-08T08:10:44.372Z,7.70
2022-11-08T08:13:01.324Z,5.60
2022-11-08T08:15:18.305Z,6.43
2022-11-08T08:17:35.245Z,4.70
2022-11-08T08:19:53.509Z,6.45
2022-11-08T08:22:10.724Z,4.93
2022-11-08T08:24:27.853Z,4.10
2022-11-08T08:26:46.089Z,3.75
2022-11-08T08:29:03.401Z,6.57
2022-11-08T08:31:20.667Z,4.20
2022-11-08T08:33:38.080Z,4.60
2022-11-08T08:35:55.633Z,3.92
2022-11-08T08:38:13.629Z,4.47
2022-11-08T08:40:30.706Z,5.55
2022-11-08T08:42:48.545Z,5.35
2022-11-08T08:45:05.613Z,4.95
2022-11-08T08:47:24.175Z,5.32
2022-11-08T08:49:41.175Z,3.83
2022-11-08T08:51:58.190Z,10.57
2022-11-08T08:54:15.446Z,3.95
2022-11-08T08:56:33.484Z,4.47
2022-11-08T09:03:52.057Z,3.63
2022-11-08T09:06:09.352Z,5.80
2022-11-08T09:08:26.532Z,6.63
2022-11-08T09:10:43.511Z,5.38
2022-11-08T09:13:00.553Z,6.75
2022-11-08T09:15:18.456Z,5.18
2022-11-08T09:17:35.693Z,11.40
2022-11-08T09:19:56.941Z,7.35
2022-11-08T09:22:14.396Z,7.47
2022-11-08T09:24:31.448Z,7.45
2022-11-08T09:26:48.470Z,11.35
2022-11-08T09:29:05.342Z,11.40
2022-11-08T09:31:22.345Z,9.30
2022-11-08T09:33:40.340Z,8.05
2022-11-08T09:35:57.315Z,6.13
2022-11-08T09:38:14.444Z,6.93
2022-11-08T09:40:31.876Z,5.70
2022-11-08T09:42:49.136Z,6.47
2022-11-08T09:45:06.362Z,7.30
2022-11-08T09:47:23.284Z,5.15
2022-11-08T09:49:40.230Z,6.18
2022-11-08T09:51:57.470Z,6.40
2022-11-08T09:54:18.503Z,7.95
2022-11-08T09:56:36.496Z,6.18
2022-11-08T09:58:53.484Z,7.88
2022-11-08T10:01:10.741Z,6.75
2022-11-08T10:03:30.078Z,8.52
2022-11-08T10:05:47.202Z,8.55
2022-11-08T10:08:04.443Z,11.43
2022-11-08T10:10:23.930Z,9.63
2022-11-08T10:12:41.906Z,8.25
2022-11-08T10:14:58.884Z,8.80
2022-11-08T10:17:16.131Z,7.38
2022-11-08T10:19:34.137Z,9.15
2022-11-08T10:21:52.452Z,13.30
2022-11-08T10:24:09.687Z,10.20
2022-11-08T10:26:28.443Z,8.25
2022-11-08T10:28:45.392Z,9.38
2022-11-08T10:31:02.396Z,12.27
2022-11-08T10:33:19.799Z,15.27
2022-11-08T10:35:38.367Z,12.55
2022-11-08T10:37:56.305Z,11.65
2022-11-08T10:40:13.321Z,8.77
2022-11-08T10:42:30.512Z,8.73
2022-11-08T10:44:48.474Z,8.82
2022-11-08T10:47:05.424Z,9.43
2022-11-08T10:49:22.678Z,10.30
2022-11-08T10:51:39.697Z,10.23
2022-11-08T10:53:56.833Z,10.98
2022-11-08T10:56:15.166Z,5.93
2022-11-08T10:58:33.240Z,12.60
2022-11-08T11:00:50.471Z,10.82
2022-11-08T11:03:07.417Z,6.55
2022-11-08T11:05:24.306Z,7.40
2022-11-08T11:07:41.216Z,7.82
2022-11-08T11:09:58.472Z,8.68
2022-11-08T11:12:16.646Z,8.85
2022-11-08T11:14:33.565Z,7.47
2022-11-08T11:16:50.641Z,11.15
2022-11-08T11:19:07.522Z,7.00
2022-11-08T11:21:24.559Z,9.02
2022-11-08T11:23:41.624Z,8.82
2022-11-08T11:25:58.583Z,7.18
2022-11-08T11:28:15.781Z,7.20
2022-11-08T11:30:33.036Z,9.95
2022-11-08T11:32:50.011Z,14.63
2022-11-08T11:35:07.127Z,10.00
2022-11-08T11:37:25.039Z,11.80
2022-11-08T11:39:42.277Z,7.97
2022-11-08T11:42:05.304Z,10.18
2022-11-08T11:44:29.796Z,11.23
2022-11-08T11:46:47.035Z,10.43
2022-11-08T11:49:04.036Z,6.72
2022-11-08T11:51:22.139Z,11.65
2022-11-08T11:53:40.902Z,11.05
2022-11-08T11:55:59.813Z,13.20
2022-11-08T11:58:17.024Z,11.48
2022-11-08T12:00:34.114Z,12.02
2022-11-08T12:02:51.062Z,11.55
2022-11-08T12:05:08.231Z,10.30
2022-11-08T12:07:25.257Z,16.33
2022-11-08T12:09:42.255Z,6.82
2022-11-08T12:12:00.469Z,7.10
2022-11-08T12:14:17.484Z,5.93
2022-11-08T12:16:34.686Z,7.43
2022-11-08T12:18:52.141Z,10.30
2022-11-08T12:21:09.367Z,9.32
2022-11-08T12:23:26.574Z,7.90
2022-11-08T12:25:43.579Z,4.53
2022-11-08T12:28:00.497Z,6.03
2022-11-08T12:30:19.039Z,9.25
2022-11-08T12:32:35.949Z,6.68
2022-11-08T12:34:53.171Z,3.63
2022-11-08T12:37:10.188Z,5.28
2022-11-08T12:39:27.230Z,3.13
2022-11-08T12:41:45.144Z,3.33
2022-11-08T12:44:02.152Z,3.78
2022-11-08T12:46:20.344Z,4.18
2022-11-08T12:48:37.291Z,3.03
2022-11-08T12:50:58.943Z,4.32
2022-11-08T12:53:18.381Z,3.30
2022-11-08T12:55:35.591Z,3.00
2022-11-08T12:57:52.866Z,4.20
2022-11-08T13:00:10.165Z,4.45
2022-11-08T13:02:27.154Z,2.97
2022-11-08T13:04:44.152Z,3.30
2022-11-08T13:07:01.587Z,3.15
2022-11-08T13:09:18.521Z,2.47
2022-11-08T13:11:35.543Z,3.85
2022-11-08T13:13:52.514Z,2.60
2022-11-08T13:16:09.431Z,4.68
2022-11-08T13:18:26.452Z,3.40
2022-11-08T13:20:43.427Z,3.78
2022-11-08T13:23:01.697Z,2.53
2022-11-08T13:25:18.626Z,4.55
2022-11-08T13:27:35.887Z,10.20
2022-11-08T13:29:52.882Z,4.57
2022-11-08T13:32:09.855Z,5.32
2022-11-08T13:34:27.309Z,3.80
2022-11-08T13:36:44.213Z,3.58
2022-11-08T13:39:02.351Z,4.30
2022-11-08T13:41:19.610Z,5.15
2022-11-08T13:43:36.643Z,3.40
2022-11-08T13:45:53.697Z,4.10
2022-11-08T13:48:13.590Z,7.82
2022-11-08T13:50:31.608Z,4.55
2022-11-08T13:52:48.639Z,5.47
2022-11-08T13:55:05.848Z,5.65
2022-11-08T13:57:23.161Z,5.80
2022-11-08T13:59:40.198Z,3.40
2022-11-08T14:01:57.282Z,3.50
2022-11-08T14:04:14.532Z,4.45
2022-11-08T14:06:31.735Z,3.67
2022-11-08T14:08:48.766Z,3.75
2022-11-08T14:11:05.818Z,4.70
2022-11-08T14:13:22.744Z,5.00
2022-11-08T14:15:39.947Z,4.45
2022-11-08T14:17:57.186Z,4.57
2022-11-08T14:20:14.170Z,4.90
2022-11-08T14:22:31.427Z,3.30
2022-11-08T14:24:48.748Z,3.65
2022-11-08T14:27:05.668Z,2.88
2022-11-08T14:29:22.621Z,4.25
2022-11-08T14:31:39.617Z,5.00
2022-11-08T14:33:56.553Z,3.92
2022-11-08T14:36:13.536Z,3.70
2022-11-08T14:38:30.778Z,7.80
2022-11-08T14:40:48.757Z,3.60
2022-11-08T14:43:06.770Z,6.55
2022-11-08T14:45:26.041Z,3.67
2022-11-08T14:47:43.288Z,6.00
2022-11-08T14:50:01.501Z,5.50
2022-11-08T14:52:19.748Z,3.80
2022-11-08T14:54:38.025Z,4.78
2022-11-08T14:56:55.266Z,5.35
2022-11-08T14:59:12.540Z,6.50
2022-11-08T15:01:29.633Z,5.80
2022-11-08T15:03:47.037Z,5.75
2022-11-08T15:06:03.968Z,6.05
2022-11-08T15:08:21.139Z,6.60
2022-11-08T15:10:38.461Z,6.47
2022-11-08T15:12:55.505Z,8.65
2022-11-08T15:15:12.749Z,4.80
2022-11-08T15:17:29.735Z,10.88
2022-11-08T15:19:46.969Z,11.52
2022-11-08T15:22:04.005Z,9.77
2022-11-08T15:24:21.242Z,5.65
2022-11-08T15:26:38.278Z,5.55
2022-11-08T15:28:55.516Z,7.20
2022-11-08T15:31:12.751Z,9.85
2022-11-08T15:33:29.784Z,5.35
2022-11-08T15:35:46.745Z,5.13
2022-11-08T15:38:03.778Z,6.72
2022-11-08T15:40:21.830Z,5.07
2022-11-08T15:42:43.332Z,5.72
2022-11-08T15:45:01.609Z,5.78
2022-11-08T15:47:18.627Z,8.00
2022-11-08T15:49:35.950Z,12.30
2022-11-08T15:51:53.183Z,10.73
2022-11-08T15:54:10.210Z,8.43
2022-11-08T15:56:27.248Z,8.43
2022-11-08T15:58:44.167Z,8.07
2022-11-08T16:01:01.521Z,6.22
2022-11-08T16:03:18.588Z,6.80
2022-11-08T16:05:35.489Z,6.80
2022-11-08T16:07:52.733Z,8.43
2022-11-08T16:10:09.966Z,6.32
2022-11-08T16:12:27.001Z,7.18
2022-11-08T16:14:44.230Z,6.07
2022-11-08T16:17:01.210Z,5.28
2022-11-08T16:19:18.131Z,6.90
2022-11-08T16:21:35.358Z,5.70
2022-11-08T16:23:52.357Z,6.57
2022-11-08T16:26:09.247Z,5.03
2022-11-08T16:28:26.342Z,5.88
2022-11-08T16:30:44.336Z,5.63
2022-11-08T16:33:01.700Z,5.82
2022-11-08T16:35:18.888Z,11.07
2022-11-08T16:37:35.893Z,4.18
2022-11-08T16:39:52.954Z,5.68
2022-11-08T16:42:09.871Z,8.18
2022-11-08T16:44:27.126Z,8.15
2022-11-08T16:46:44.043Z,5.30
2022-11-08T16:49:01.086Z,4.35
2022-11-08T16:51:18.051Z,9.15
2022-11-08T16:53:35.388Z,5.97
2022-11-08T16:55:52.699Z,6.97
2022-11-08T16:58:09.719Z,3.13
2022-11-08T17:00:26.759Z,5.35
2022-11-08T17:02:43.749Z,2.28
2022-11-08T17:05:01.745Z,4.07
2022-11-08T17:07:18.821Z,4.85
2022-11-08T17:09:35.905Z,7.25
2022-11-08T17:11:53.114Z,6.30
2022-11-08T17:14:10.344Z,6.22
2022-11-08T17:16:27.371Z,5.05
2022-11-08T17:18:47.435Z,3.67
2022-11-08T17:21:23.228Z,7.35
2022-11-08T17:23:43.771Z,4.93
2022-11-08T17:26:01.080Z,8.85
2022-11-08T17:28:18.376Z,6.43
2022-11-08T17:30:35.879Z,5.32
2022-11-08T17:32:52.894Z,6.05
2022-11-08T17:35:09.964Z,5.53
2022-11-08T17:37:26.988Z,5.10
2022-11-08T17:39:45.162Z,5.65
2022-11-08T17:42:02.227Z,7.57
2022-11-08T17:44:19.428Z,7.28
2022-11-08T17:46:37.396Z,5.50
2022-11-08T17:48:54.612Z,4.97
2022-11-08T17:51:11.874Z,5.03
2022-11-08T17:53:28.808Z,10.60
2022-11-08T17:55:46.042Z,7.55
2022-11-08T17:58:03.111Z,7.18
2022-11-08T18:00:20.056Z,6.38
2022-11-08T18:02:37.848Z,9.88
2022-11-08T18:04:54.916Z,8.13
2022-11-08T18:07:11.988Z,8.10
2022-11-08T18:09:29.093Z,9.65
2022-11-08T18:11:46.128Z,10.13
2022-11-08T18:14:03.157Z,11.98
2022-11-08T18:16:21.390Z,11.02
2022-11-08T18:18:38.396Z,11.45
2022-11-08T18:20:55.645Z,12.20
2022-11-08T18:23:12.600Z,11.77
2022-11-08T18:25:29.832Z,11.10
2022-11-08T18:27:47.153Z,8.98
2022-11-08T18:30:04.079Z,12.80
2022-11-08T18:32:21.113Z,16.00
2022-11-08T18:34:38.376Z,12.25
2022-11-08T18:36:55.415Z,15.95
2022-11-08T18:39:18.154Z,15.75
2022-11-08T18:41:36.666Z,16.67
2022-11-08T18:43:56.663Z,14.57
2022-11-08T18:46:14.940Z,9.90
2022-11-08T18:48:32.976Z,10.52
2022-11-08T18:50:50.217Z,12.65
2022-11-08T18:53:07.805Z,10.35
2022-11-08T18:55:26.302Z,9.82
2022-11-08T18:57:43.423Z,13.90
2022-11-08T19:00:01.748Z,10.90
2022-11-08T19:02:19.216Z,10.48
2022-11-08T19:04:36.605Z,8.75
2022-11-08T19:06:54.937Z,9.90
2022-11-08T19:09:12.137Z,12.15
2022-11-08T19:11:29.469Z,5.93
2022-11-08T19:13:46.493Z,10.55
2022-11-08T19:16:03.756Z,9.43
2022-11-08T19:18:20.954Z,5.82
2022-11-08T19:20:39.017Z,5.85
2022-11-08T19:22:55.993Z,11.40
2022-11-08T19:25:12.979Z,8.15
2022-11-08T19:27:30.025Z,5.55
2022-11-08T19:29:47.031Z,4.40
2022-11-08T19:32:04.479Z,5.88
2022-11-08T19:34:21.502Z,7.63
2022-11-08T19:36:38.754Z,7.18
2022-11-08T19:38:56.996Z,9.05
2022-11-08T19:41:13.952Z,7.88
2022-11-08T19:43:30.988Z,5.55
2022-11-08T19:45:51.695Z,5.78
2022-11-08T19:48:08.817Z,12.38
2022-11-08T19:50:25.771Z,8.10
2022-11-08T19:52:42.720Z,8.93
2022-11-08T19:54:59.992Z,8.90
2022-11-08T19:57:18.028Z,7.53
2022-11-08T19:59:35.037Z,8.30
2022-11-08T20:01:52.149Z,7.25
2022-11-08T20:04:09.729Z,12.68
2022-11-08T20:06:26.776Z,9.68
2022-11-08T20:08:44.072Z,6.40
2022-11-08T20:11:01.297Z,8.50
2022-11-08T20:13:18.205Z,8.85
2022-11-08T20:15:35.142Z,10.65
2022-11-08T20:17:52.483Z,9.25
2022-11-08T20:20:09.532Z,12.23
2022-11-08T20:22:26.396Z,12.57
2022-11-08T20:24:43.385Z,11.70
2022-11-08T20:27:00.440Z,10.35
2022-11-08T20:29:18.501Z,9.45
2022-11-08T20:31:35.532Z,12.88
2022-11-08T20:33:53.141Z,10.50
2022-11-08T20:36:10.583Z,9.68
2022-11-08T20:38:28.200Z,14.55
2022-11-08T20:40:45.252Z,9.57
2022-11-08T20:43:02.780Z,13.55
2022-11-08T20:45:19.670Z,11.10
2022-11-08T20:47:36.605Z,11.10
2022-11-08T20:49:53.579Z,7.20
2022-11-08T20:52:10.465Z,8.85
2022-11-08T20:54:27.383Z,7.68
2022-11-08T20:56:44.308Z,9.30
2022-11-08T20:59:02.232Z,8.60
2022-11-08T21:01:19.245Z,10.80
2022-11-08T21:03:37.246Z,11.05
2022-11-08T21:05:54.162Z,12.52
2022-11-08T21:10:48.497Z,7.28
2022-11-08T21:13:05.836Z,7.47
2022-11-08T21:15:27.023Z,7.25
2022-11-08T21:17:45.218Z,9.85
2022-11-08T21:20:02.474Z,9.70
2022-11-08T21:22:19.439Z,7.50
2022-11-08T21:24:36.715Z,8.27
2022-11-08T21:26:53.805Z,10.73
2022-11-08T21:29:10.884Z,8.48
2022-11-08T21:31:27.945Z,7.18
2022-11-08T21:33:44.842Z,8.15
2022-11-08T21:36:03.128Z,7.53
2022-11-08T21:38:20.420Z,8.48
2022-11-08T21:40:39.062Z,6.40
2022-11-08T21:42:57.076Z,8.95
2022-11-08T21:45:13.966Z,9.75
2022-11-08T21:47:31.129Z,8.68
2022-11-08T21:49:48.338Z,7.18
2022-11-08T21:52:05.333Z,6.47
2022-11-08T21:54:22.255Z,8.70
2022-11-08T21:56:40.473Z,6.05
2022-11-08T21:58:57.544Z,8.40
2022-11-08T22:01:14.918Z,8.50
2022-11-08T22:03:32.242Z,10.48
2022-11-08T22:05:49.152Z,7.97
2022-11-08T22:08:06.147Z,9.68
2022-11-08T22:10:23.236Z,14.35
2022-11-08T22:12:40.680Z,9.63
2022-11-08T22:14:59.796Z,8.27
2022-11-08T22:17:17.140Z,10.30
2022-11-08T22:19:35.387Z,9.90
2022-11-08T22:21:52.550Z,9.43
2022-11-08T22:24:09.961Z,6.63
2022-11-08T22:26:28.421Z,11.95
2022-11-08T22:28:45.736Z,7.53
2022-11-08T22:31:02.829Z,8.63
2022-11-08T22:33:19.740Z,6.75
2022-11-08T22:35:37.196Z,5.07
2022-11-08T22:37:54.604Z,9.00
2022-11-08T22:40:12.509Z,8.45
2022-11-08T22:42:31.065Z,8.95
2022-11-08T22:44:48.069Z,7.82
2022-11-08T22:47:05.424Z,7.43
2022-11-08T22:49:22.881Z,13.15
2022-11-08T22:51:40.044Z,5.53
2022-11-08T22:53:57.186Z,6.50
2022-11-08T22:56:15.279Z,6.05
2022-11-08T22:58:32.449Z,6.88
2022-11-08T23:00:50.026Z,6.50
2022-11-08T23:03:08.135Z,8.90
2022-11-08T23:05:26.466Z,7.80
2022-11-08T23:07:43.908Z,12.25
2022-11-08T23:10:01.192Z,8.88
2022-11-08T23:12:18.244Z,10.25
2022-11-08T23:14:37.480Z,8.90
2022-11-08T23:16:54.897Z,6.15
2022-11-08T23:19:13.435Z,5.80
2022-11-08T23:21:31.648Z,10.40
2022-11-08T23:23:48.727Z,6.97
2022-11-08T23:26:05.869Z,8.52
2022-11-08T23:28:22.800Z,8.80
2022-11-08T23:30:42.708Z,7.05
2022-11-08T23:33:00.050Z,6.88
2022-11-08T23:35:18.561Z,9.18
2022-11-08T23:37:35.469Z,8.80
2022-11-08T23:39:52.770Z,6.13
2022-11-08T23:42:09.909Z,10.20
2022-11-08T23:44:26.914Z,11.48
2022-11-08T23:46:44.327Z,8.95
2022-11-08T23:49:02.276Z,9.73
2022-11-08T23:51:19.395Z,10.07
2022-11-08T23:53:36.478Z,7.13
2022-11-08T23:55:53.664Z,12.20
2022-11-08T23:58:11.771Z,8.57
